![]() |
EMODnet Physics ERDDAP
Easier access to scientific data |
log in|
Brought to you by EMODnet Physics |
| Dataset Title: | NDBC - Collection of dew point temperature (DEWT) TimeSeries - IN SITU MultiPointTimeSeriesObservation
|
| Institution: | NDBC (Dataset ID: TS_DEWT_NDBC) |
| Information: | Summary
| License
| FGDC
| ISO 19115
| Metadata
| Background
| Subset
| Data Access Form
| Make a graph
|
| Name | Last modified | Size | Description | |
|---|---|---|---|---|
| Parent Directory | - | - | ||
| LTRM4_TS_DEWT_012015.nc | 24-Dec-2024 20:15 | 1026915 | ||
| LTRM4_TS_DEWT_012020.nc | 24-Dec-2024 20:42 | 993883 | ||
| LTRM4_TS_DEWT_012021.nc | 24-Dec-2024 20:48 | 916416 | ||
| LTRM4_TS_DEWT_012022.nc | 24-Dec-2024 20:55 | 918428 | ||
| LTRM4_TS_DEWT_012023.nc | 24-Dec-2024 21:02 | 918028 | ||
| LTRM4_TS_DEWT_012025.nc | 07-Feb-2025 12:55 | 2996395 | ||
| LTRM4_TS_DEWT_012026.nc | 02-Feb-2026 19:14 | 1265398 | ||
| LTRM4_TS_DEWT_022015.nc | 24-Dec-2024 20:16 | 1266843 | ||
| LTRM4_TS_DEWT_022020.nc | 24-Dec-2024 20:43 | 997435 | ||
| LTRM4_TS_DEWT_022021.nc | 24-Dec-2024 20:49 | 904494 | ||
| LTRM4_TS_DEWT_022022.nc | 24-Dec-2024 20:55 | 1144458 | ||
| LTRM4_TS_DEWT_022023.nc | 24-Dec-2024 21:03 | 1143001 | ||
| LTRM4_TS_DEWT_022025.nc | 01-Mar-2025 08:03 | 3374245 | ||
| LTRM4_TS_DEWT_022026.nc | 01-Mar-2026 10:32 | 1110721 | ||
| LTRM4_TS_DEWT_032014.nc | 24-Dec-2024 20:11 | 1032916 | ||
| LTRM4_TS_DEWT_032015.nc | 24-Dec-2024 20:16 | 996784 | ||
| LTRM4_TS_DEWT_032019.nc | 24-Dec-2024 20:38 | 993773 | ||
| LTRM4_TS_DEWT_032020.nc | 24-Dec-2024 20:43 | 995413 | ||
| LTRM4_TS_DEWT_032021.nc | 24-Dec-2024 20:49 | 994801 | ||
| LTRM4_TS_DEWT_032022.nc | 24-Dec-2024 20:56 | 1266349 | ||
| LTRM4_TS_DEWT_032023.nc | 24-Dec-2024 21:03 | 1152060 | ||
| LTRM4_TS_DEWT_032025.nc | 02-Apr-2025 06:00 | 1145422 | ||
| LTRM4_TS_DEWT_032026.nc | 25-Mar-2026 14:05 | 1144070 | ||
| LTRM4_TS_DEWT_042014.nc | 24-Dec-2024 20:11 | 1145135 | ||
| LTRM4_TS_DEWT_042015.nc | 24-Dec-2024 20:17 | 996501 | ||
| LTRM4_TS_DEWT_042019.nc | 24-Dec-2024 20:38 | 1111563 | ||
| LTRM4_TS_DEWT_042020.nc | 24-Dec-2024 20:44 | 994970 | ||
| LTRM4_TS_DEWT_042021.nc | 24-Dec-2024 20:49 | 994682 | ||
| LTRM4_TS_DEWT_042022.nc | 24-Dec-2024 20:56 | 995835 | ||
| LTRM4_TS_DEWT_042023.nc | 24-Dec-2024 21:04 | 995485 | ||
| LTRM4_TS_DEWT_042025.nc | 30-Apr-2025 06:24 | 995627 | ||
| LTRM4_TS_DEWT_052014.nc | 24-Dec-2024 20:12 | 1261333 | ||
| LTRM4_TS_DEWT_052015.nc | 24-Dec-2024 20:17 | 1144484 | ||
| LTRM4_TS_DEWT_052019.nc | 24-Dec-2024 20:39 | 997390 | ||
| LTRM4_TS_DEWT_052020.nc | 24-Dec-2024 20:44 | 995436 | ||
| LTRM4_TS_DEWT_052021.nc | 24-Dec-2024 20:50 | 1143922 | ||
| LTRM4_TS_DEWT_052022.nc | 24-Dec-2024 20:57 | 606731 | ||
| LTRM4_TS_DEWT_052023.nc | 24-Dec-2024 21:04 | 1261932 | ||
| LTRM4_TS_DEWT_052025.nc | 01-Jun-2025 07:32 | 1144054 | ||
| LTRM4_TS_DEWT_062014.nc | 24-Dec-2024 20:12 | 996470 | ||
| LTRM4_TS_DEWT_062015.nc | 24-Dec-2024 20:18 | 1144936 | ||
| LTRM4_TS_DEWT_062019.nc | 24-Dec-2024 20:39 | 1144198 | ||
| LTRM4_TS_DEWT_062020.nc | 24-Dec-2024 20:45 | 905732 | ||
| LTRM4_TS_DEWT_062021.nc | 24-Dec-2024 20:50 | 1110897 | ||
| LTRM4_TS_DEWT_062022.nc | 24-Dec-2024 20:58 | 995234 | ||
| LTRM4_TS_DEWT_062023.nc | 24-Dec-2024 21:05 | 994757 | ||
| LTRM4_TS_DEWT_062025.nc | 17-Jun-2025 05:57 | 995426 | ||
| LTRM4_TS_DEWT_072014.nc | 24-Dec-2024 20:13 | 918351 | ||
| LTRM4_TS_DEWT_072015.nc | 24-Dec-2024 20:18 | 995856 | ||
| LTRM4_TS_DEWT_072019.nc | 24-Dec-2024 20:40 | 1263929 | ||
| LTRM4_TS_DEWT_072020.nc | 24-Dec-2024 20:45 | 1144403 | ||
| LTRM4_TS_DEWT_072021.nc | 24-Dec-2024 20:51 | 1142875 | ||
| LTRM4_TS_DEWT_072022.nc | 24-Dec-2024 20:58 | 996524 | ||
| LTRM4_TS_DEWT_072023.nc | 24-Dec-2024 21:06 | 997723 | ||
| LTRM4_TS_DEWT_072025.nc | 16-Aug-2025 08:10 | 1144025 | ||
| LTRM4_TS_DEWT_082014.nc | 24-Dec-2024 20:13 | 1018043 | ||
| LTRM4_TS_DEWT_082015.nc | 24-Dec-2024 20:19 | 996787 | ||
| LTRM4_TS_DEWT_082019.nc | 24-Dec-2024 20:40 | 917980 | ||
| LTRM4_TS_DEWT_082020.nc | 24-Dec-2024 20:46 | 996406 | ||
| LTRM4_TS_DEWT_082021.nc | 24-Dec-2024 20:52 | 995702 | ||
| LTRM4_TS_DEWT_082022.nc | 24-Dec-2024 20:59 | 995241 | ||
| LTRM4_TS_DEWT_082023.nc | 24-Dec-2024 21:06 | 642294 | ||
| LTRM4_TS_DEWT_082025.nc | 01-Sep-2025 08:06 | 1022715 | ||
| LTRM4_TS_DEWT_092014.nc | 24-Dec-2024 20:14 | 1145296 | ||
| LTRM4_TS_DEWT_092019.nc | 24-Dec-2024 20:41 | 995118 | ||
| LTRM4_TS_DEWT_092020.nc | 24-Dec-2024 20:46 | 1145150 | ||
| LTRM4_TS_DEWT_092021.nc | 24-Dec-2024 20:52 | 1144102 | ||
| LTRM4_TS_DEWT_092022.nc | 24-Dec-2024 21:00 | 995118 | ||
| LTRM4_TS_DEWT_092023.nc | 24-Dec-2024 21:07 | 429543 | ||
| LTRM4_TS_DEWT_092025.nc | 01-Oct-2025 08:32 | 450491 | ||
| LTRM4_TS_DEWT_102014.nc | 24-Dec-2024 20:14 | 452493 | ||
| LTRM4_TS_DEWT_102019.nc | 24-Dec-2024 20:41 | 452556 | ||
| LTRM4_TS_DEWT_102020.nc | 24-Dec-2024 20:47 | 453620 | ||
| LTRM4_TS_DEWT_102021.nc | 24-Dec-2024 20:53 | 453367 | ||
| LTRM4_TS_DEWT_102022.nc | 24-Dec-2024 21:00 | 452196 | ||
| LTRM4_TS_DEWT_102023.nc | 24-Dec-2024 21:07 | 454113 | ||
| LTRM4_TS_DEWT_102025.nc | 01-Nov-2025 08:06 | 453553 | ||
| LTRM4_TS_DEWT_112014.nc | 24-Dec-2024 20:15 | 630510 | ||
| LTRM4_TS_DEWT_112019.nc | 24-Dec-2024 20:42 | 660838 | ||
| LTRM4_TS_DEWT_112020.nc | 24-Dec-2024 20:47 | 662001 | ||
| LTRM4_TS_DEWT_112021.nc | 24-Dec-2024 20:53 | 657149 | ||
| LTRM4_TS_DEWT_112022.nc | 24-Dec-2024 21:01 | 660141 | ||
| LTRM4_TS_DEWT_112023.nc | 24-Dec-2024 21:08 | 655733 | ||
| LTRM4_TS_DEWT_112024.nc | 17-Jan-2025 19:13 | 650482 | ||
| LTRM4_TS_DEWT_112025.nc | 01-Dec-2025 06:18 | 4080000 | ||
| LTRM4_TS_DEWT_122014.nc | 24-Dec-2024 20:15 | 3226545 | ||
| LTRM4_TS_DEWT_122019.nc | 24-Dec-2024 20:42 | 428697 | ||
| LTRM4_TS_DEWT_122020.nc | 24-Dec-2024 20:48 | 452262 | ||
| LTRM4_TS_DEWT_122021.nc | 24-Dec-2024 20:54 | 448597 | ||
| LTRM4_TS_DEWT_122022.nc | 24-Dec-2024 21:02 | 447752 | ||
| LTRM4_TS_DEWT_122023.nc | 24-Dec-2024 21:09 | 448659 | ||
| LTRM4_TS_DEWT_122024.nc | 22-Jan-2025 19:26 | 450735 | ||
| LTRM4_TS_DEWT_122025.nc | 30-Dec-2025 06:24 | 449151 | ||